Time;durP1;ratioP1;P1;durP2;ratioP2;P2;SDS_P1;SDS_P2;PMS_P1;PMS_P2;Temp;Humidity;BMP_temperature;BMP_pressure;BME280_temperature;BME280_humidity;BME280_pressure;Samples;Min_cycle;Max_cycle;Signal;HPM_P1;HPM_P2
2022/08/01 00:01:48;;;;;;;21.42;19.58;;;;;;;;;;4905753;28;20240;-86
2022/08/01 00:04:16;;;;;;;20.73;18.90;;;;;;;;;;4943206;28;20298;-85
2022/08/01 00:06:43;;;;;;;21.05;19.25;;;;;;;;;;4940369;28;20222;-86
2022/08/01 00:09:09;;;;;;;19.80;18.00;;;;;;;;;;4941515;28;20226;-84
2022/08/01 00:11:39;;;;;;;18.13;16.67;;;;;;;;;;4958304;28;20229;-83
2022/08/01 00:14:05;;;;;;;17.85;16.35;;;;;;;;;;4958248;28;20219;-84
2022/08/01 00:16:35;;;;;;;17.45;15.98;;;;;;;;;;4918610;28;20603;-83
2022/08/01 00:19:00;;;;;;;14.45;13.25;;;;;;;;;;4945700;28;20234;-83
2022/08/01 00:21:29;;;;;;;13.38;12.18;;;;;;;;;;4942028;28;20221;-85
2022/08/01 00:23:57;;;;;;;14.27;13.07;;;;;;;;;;4939346;28;20246;-85
2022/08/01 00:26:22;;;;;;;12.20;11.18;;;;;;;;;;4935736;28;20232;-86
2022/08/01 00:28:48;;;;;;;11.65;10.80;;;;;;;;;;4938882;28;20225;-84
2022/08/01 00:31:13;;;;;;;12.43;11.35;;;;;;;;;;4937543;28;20240;-85
2022/08/01 00:33:44;;;;;;;12.45;11.40;;;;;;;;;;4912409;28;20682;-84
2022/08/01 00:36:12;;;;;;;12.77;11.68;;;;;;;;;;4953087;28;20710;-85
2022/08/01 00:38:39;;;;;;;12.85;11.75;;;;;;;;;;4941851;28;20312;-87
2022/08/01 00:41:09;;;;;;;11.70;10.80;;;;;;;;;;4914759;28;20245;-84
2022/08/01 00:43:37;;;;;;;11.82;10.93;;;;;;;;;;4947317;28;20242;-85
2022/08/01 00:46:03;;;;;;;11.32;10.43;;;;;;;;;;4916519;28;20229;-84
2022/08/01 00:48:30;;;;;;;11.07;10.20;;;;;;;;;;4941258;28;20226;-82
2022/08/01 00:50:58;;;;;;;11.20;10.30;;;;;;;;;;4917495;28;20722;-83
2022/08/01 00:53:25;;;;;;;11.98;10.77;;;;;;;;;;4938674;28;20225;-82
2022/08/01 00:55:52;;;;;;;11.50;10.32;;;;;;;;;;4917635;28;20226;-84
2022/08/01 00:58:18;;;;;;;10.85;10.05;;;;;;;;;;4939958;28;20848;-85
2022/08/01 01:00:43;;;;;;;11.63;10.73;;;;;;;;;;4946441;29;20223;-82
2022/08/01 01:03:12;;;;;;;10.60;9.80;;;;;;;;;;4919129;28;20246;-82
2022/08/01 01:05:47;;;;;;;9.35;8.65;;;;;;;;;;4930353;29;20629;-82
2022/08/01 01:08:39;;;;;;;8.45;7.55;;;;;;;;;;4938099;28;20226;-82
2022/08/01 01:11:15;;;;;;;6.13;5.70;;;;;;;;;;4940854;28;20258;-85
2022/08/01 01:13:46;;;;;;;6.38;5.97;;;;;;;;;;4973472;28;20221;-85
2022/08/01 01:16:18;;;;;;;6.63;6.13;;;;;;;;;;4927718;28;20317;-85
2022/08/01 01:18:49;;;;;;;6.90;6.30;;;;;;;;;;4935304;28;20225;-86
2022/08/01 01:21:16;;;;;;;7.75;7.00;;;;;;;;;;4962698;28;20234;-85
2022/08/01 01:24:12;;;;;;;8.05;7.45;;;;;;;;;;4978593;28;20692;-85
2022/08/01 01:27:02;;;;;;;8.00;7.40;;;;;;;;;;4974894;28;20230;-84
2022/08/01 01:29:32;;;;;;;8.55;7.95;;;;;;;;;;4966133;28;20226;-85
2022/08/01 01:32:05;;;;;;;9.05;8.35;;;;;;;;;;4912101;28;20603;-87
2022/08/01 01:34:33;;;;;;;9.40;8.48;;;;;;;;;;4940836;28;20301;-84
2022/08/01 01:37:01;;;;;;;9.52;8.82;;;;;;;;;;4959032;28;20726;-85
2022/08/01 01:39:29;;;;;;;10.25;9.27;;;;;;;;;;4939957;29;20226;-84
2022/08/01 01:41:55;;;;;;;9.65;8.95;;;;;;;;;;4955854;28;20248;-85
2022/08/01 01:44:21;;;;;;;9.88;9.00;;;;;;;;;;4959308;28;20238;-86
2022/08/01 01:46:47;;;;;;;10.52;9.73;;;;;;;;;;4965744;28;20226;-85
2022/08/01 01:49:15;;;;;;;10.60;9.70;;;;;;;;;;4907385;28;20222;-86
2022/08/01 01:51:41;;;;;;;10.23;9.32;;;;;;;;;;4940650;28;20221;-85
2022/08/01 01:54:06;;;;;;;10.38;9.57;;;;;;;;;;4960956;28;20222;-86
2022/08/01 01:56:34;;;;;;;11.15;10.05;;;;;;;;;;4960700;28;20221;-85
2022/08/01 01:59:01;;;;;;;11.52;10.52;;;;;;;;;;4956914;28;20282;-87
2022/08/01 02:01:29;;;;;;;12.27;11.38;;;;;;;;;;4938770;28;20217;-85
2022/08/01 02:03:56;;;;;;;12.10;11.07;;;;;;;;;;4958941;28;20607;-86
2022/08/01 02:06:22;;;;;;;13.07;11.88;;;;;;;;;;4955462;28;20230;-85
2022/08/01 02:08:50;;;;;;;13.00;11.75;;;;;;;;;;4927125;28;20225;-86
2022/08/01 02:11:18;;;;;;;13.27;11.95;;;;;;;;;;4939677;28;20222;-86
2022/08/01 02:13:55;;;;;;;13.13;11.98;;;;;;;;;;4924463;29;20290;-87
2022/08/01 02:16:23;;;;;;;14.77;13.38;;;;;;;;;;4943195;28;20606;-86
2022/08/01 02:18:48;;;;;;;14.48;13.27;;;;;;;;;;4975441;28;20230;-85
2022/08/01 02:21:16;;;;;;;14.82;13.35;;;;;;;;;;4934573;28;20340;-86
2022/08/01 02:23:42;;;;;;;15.88;14.43;;;;;;;;;;4908043;29;20226;-85
2022/08/01 02:26:13;;;;;;;15.48;14.18;;;;;;;;;;4939287;28;20263;-87
2022/08/01 02:28:46;;;;;;;15.63;13.88;;;;;;;;;;4911187;28;20222;-86
2022/08/01 02:31:15;;;;;;;16.17;14.77;;;;;;;;;;4960060;28;20233;-85
2022/08/01 02:33:45;;;;;;;17.10;15.50;;;;;;;;;;4927677;28;20218;-87
2022/08/01 02:36:11;;;;;;;17.30;15.60;;;;;;;;;;4943712;28;20305;-86
2022/08/01 02:38:39;;;;;;;17.20;15.57;;;;;;;;;;4930751;28;20683;-85
2022/08/01 02:41:09;;;;;;;17.55;15.88;;;;;;;;;;4911475;28;20219;-85
2022/08/01 02:43:42;;;;;;;18.77;16.92;;;;;;;;;;4921031;29;20231;-86
2022/08/01 02:46:08;;;;;;;19.25;17.35;;;;;;;;;;4956992;28;20226;-87
2022/08/01 02:48:36;;;;;;;18.55;16.65;;;;;;;;;;4912064;29;20238;-85
2022/08/01 02:51:02;;;;;;;18.38;16.67;;;;;;;;;;4951093;28;20274;-86
2022/08/01 02:53:34;;;;;;;19.85;18.00;;;;;;;;;;4980217;28;20238;-84
2022/08/01 02:56:04;;;;;;;18.20;16.42;;;;;;;;;;4961535;28;20246;-86
2022/08/01 02:58:32;;;;;;;18.92;17.10;;;;;;;;;;4931776;28;20221;-87
2022/08/01 03:00:59;;;;;;;22.63;17.10;;;;;;;;;;4977167;28;20226;-87
2022/08/01 03:03:24;;;;;;;17.98;16.38;;;;;;;;;;4941561;28;20738;-86
2022/08/01 03:05:50;;;;;;;19.40;17.38;;;;;;;;;;4943126;28;20232;-86
2022/08/01 03:08:15;;;;;;;19.35;17.23;;;;;;;;;;4909326;28;20227;-87
2022/08/01 03:10:46;;;;;;;18.67;16.90;;;;;;;;;;4952486;28;20233;-86
2022/08/01 03:13:16;;;;;;;18.77;17.10;;;;;;;;;;4932662;28;20236;-87
2022/08/01 03:15:45;;;;;;;19.08;17.27;;;;;;;;;;4963500;28;20229;-89
2022/08/01 03:18:11;;;;;;;18.88;17.08;;;;;;;;;;4931753;28;20226;-87
2022/08/01 03:20:36;;;;;;;19.50;17.58;;;;;;;;;;4943277;28;20232;-84
2022/08/01 03:23:05;;;;;;;15.35;13.88;;;;;;;;;;4921796;28;20237;-85
2022/08/01 03:25:34;;;;;;;11.90;10.77;;;;;;;;;;4948792;28;20238;-84
2022/08/01 03:28:03;;;;;;;9.07;8.38;;;;;;;;;;4916910;29;20630;-85
2022/08/01 03:30:29;;;;;;;8.73;8.02;;;;;;;;;;4938142;28;20248;-84
2022/08/01 03:32:57;;;;;;;8.10;7.50;;;;;;;;;;4951159;28;20330;-83
2022/08/01 03:35:25;;;;;;;8.00;7.35;;;;;;;;;;4941531;28;20222;-84
2022/08/01 03:37:52;;;;;;;9.70;8.90;;;;;;;;;;4944832;28;20237;-84
2022/08/01 03:40:27;;;;;;;10.57;8.95;;;;;;;;;;4932203;28;20227;-85
2022/08/01 03:42:56;;;;;;;9.35;8.57;;;;;;;;;;4972325;23;20266;-77
2022/08/01 03:45:41;;;;;;;11.00;9.90;;;;;;;;;;4889725;23;20232;-85
2022/08/01 03:48:16;;;;;;;10.43;9.43;;;;;;;;;;4941946;28;20223;-85
2022/08/01 03:50:52;;;;;;;11.30;10.40;;;;;;;;;;4911437;29;20227;-83
2022/08/01 03:53:31;;;;;;;12.07;10.95;;;;;;;;;;4940533;28;20267;-84
2022/08/01 03:55:58;;;;;;;12.57;10.18;;;;;;;;;;4905527;29;20227;-83
2022/08/01 03:58:24;;;;;;;11.15;10.15;;;;;;;;;;4938302;29;20216;-84
2022/08/01 04:00:52;;;;;;;11.60;10.60;;;;;;;;;;4942840;23;20228;-77
2022/08/01 04:03:18;;;;;;;10.57;9.77;;;;;;;;;;4893915;29;20239;-78
2022/08/01 04:05:44;;;;;;;11.55;10.55;;;;;;;;;;4918702;29;20228;-78
2022/08/01 04:08:13;;;;;;;14.32;11.27;;;;;;;;;;4898316;29;20291;-77
2022/08/01 04:10:43;;;;;;;12.00;10.98;;;;;;;;;;4895574;29;20274;-77
2022/08/01 04:13:09;;;;;;;11.73;10.65;;;;;;;;;;4876870;29;20665;-77
2022/08/01 04:15:37;;;;;;;10.82;9.93;;;;;;;;;;4879594;29;20233;-77
2022/08/01 04:18:08;;;;;;;12.70;11.60;;;;;;;;;;4912770;29;20228;-78
2022/08/01 04:20:33;;;;;;;11.75;10.65;;;;;;;;;;4902424;29;20249;-77
2022/08/01 04:23:02;;;;;;;11.20;10.15;;;;;;;;;;4877924;29;20829;-79
2022/08/01 04:25:34;;;;;;;9.77;8.85;;;;;;;;;;4861588;29;20322;-78
2022/08/01 04:28:03;;;;;;;9.60;8.80;;;;;;;;;;4914052;29;20228;-77
2022/08/01 04:30:36;;;;;;;9.98;9.07;;;;;;;;;;4894301;29;20239;-78
2022/08/01 04:33:03;;;;;;;9.82;9.05;;;;;;;;;;4883513;29;20239;-76
2022/08/01 04:35:29;;;;;;;10.38;9.57;;;;;;;;;;4892476;29;20703;-76
2022/08/01 04:37:55;;;;;;;9.55;8.75;;;;;;;;;;4912752;29;20677;-77
2022/08/01 04:40:26;;;;;;;9.73;8.98;;;;;;;;;;4899145;29;20618;-77
2022/08/01 04:42:56;;;;;;;9.90;9.10;;;;;;;;;;4894617;29;20220;-77
2022/08/01 04:45:24;;;;;;;9.88;9.07;;;;;;;;;;4910678;29;20264;-77
2022/08/01 04:47:50;;;;;;;9.70;8.90;;;;;;;;;;4909367;29;20240;-77
2022/08/01 04:50:16;;;;;;;8.93;8.23;;;;;;;;;;4905925;29;20229;-77
2022/08/01 04:52:41;;;;;;;8.93;8.23;;;;;;;;;;4917745;29;20223;-77
2022/08/01 04:55:07;;;;;;;8.07;7.47;;;;;;;;;;4892851;29;20232;-77
2022/08/01 04:57:38;;;;;;;7.65;7.05;;;;;;;;;;4922941;29;20312;-77
2022/08/01 05:00:04;;;;;;;7.53;6.93;;;;;;;;;;4892502;29;20224;-77
2022/08/01 05:02:32;;;;;;;7.63;6.93;;;;;;;;;;4910609;29;20223;-76
2022/08/01 05:04:59;;;;;;;6.45;5.95;;;;;;;;;;4923270;29;20236;-77
2022/08/01 05:07:27;;;;;;;7.00;6.40;;;;;;;;;;4923428;29;20296;-77
2022/08/01 05:09:53;;;;;;;7.35;6.65;;;;;;;;;;4911201;29;20232;-78
2022/08/01 05:12:21;;;;;;;6.43;5.82;;;;;;;;;;4897500;29;20715;-78
2022/08/01 05:14:48;;;;;;;6.45;5.95;;;;;;;;;;4871824;29;20247;-79
2022/08/01 05:17:17;;;;;;;6.20;5.70;;;;;;;;;;4885474;29;20776;-78
2022/08/01 05:19:42;;;;;;;7.15;6.25;;;;;;;;;;4893292;29;20240;-77
2022/08/01 05:22:08;;;;;;;6.65;6.13;;;;;;;;;;4888338;29;20606;-76
2022/08/01 05:24:38;;;;;;;6.28;5.60;;;;;;;;;;4903182;29;20343;-78
2022/08/01 05:27:03;;;;;;;6.60;6.00;;;;;;;;;;4902233;29;20309;-78
2022/08/01 05:29:29;;;;;;;5.80;5.40;;;;;;;;;;4908331;29;20246;-78
2022/08/01 05:31:57;;;;;;;6.35;5.85;;;;;;;;;;4902442;29;20230;-78
2022/08/01 05:34:23;;;;;;;6.50;5.72;;;;;;;;;;4912048;29;20232;-78
2022/08/01 05:36:48;;;;;;;6.22;5.72;;;;;;;;;;4899658;29;21079;-80
2022/08/01 05:39:14;;;;;;;6.60;6.00;;;;;;;;;;4883994;29;20228;-79
2022/08/01 05:41:44;;;;;;;6.30;5.70;;;;;;;;;;4889865;29;20212;-76
2022/08/01 05:44:15;;;;;;;5.80;5.30;;;;;;;;;;4900334;29;20271;-78
2022/08/01 05:46:43;;;;;;;5.35;4.93;;;;;;;;;;4911571;29;20223;-78
2022/08/01 05:49:08;;;;;;;5.30;4.90;;;;;;;;;;4893361;29;20930;-79
2022/08/01 05:51:34;;;;;;;4.78;4.38;;;;;;;;;;4879903;29;20239;-79
2022/08/01 05:53:59;;;;;;;4.00;3.70;;;;;;;;;;4898805;29;20274;-77
2022/08/01 05:56:25;;;;;;;3.67;3.47;;;;;;;;;;4888257;29;20224;-78
2022/08/01 05:58:51;;;;;;;4.10;3.75;;;;;;;;;;4914138;29;20291;-79
2022/08/01 06:01:17;;;;;;;3.47;3.15;;;;;;;;;;4911579;29;20220;-77
2022/08/01 06:03:43;;;;;;;3.33;3.03;;;;;;;;;;4888304;29;20233;-77
2022/08/01 06:06:13;;;;;;;3.45;3.22;;;;;;;;;;4916318;29;20231;-77
2022/08/01 06:08:50;;;;;;;3.47;3.20;;;;;;;;;;4902789;29;20225;-85
2022/08/01 06:11:16;;;;;;;2.88;2.67;;;;;;;;;;4895584;29;20290;-85
2022/08/01 06:13:44;;;;;;;3.30;3.00;;;;;;;;;;4895006;29;20682;-86
2022/08/01 06:16:20;;;;;;;4.35;3.17;;;;;;;;;;4928791;29;20260;-86
2022/08/01 06:18:50;;;;;;;3.20;2.95;;;;;;;;;;4927708;29;20890;-86
2022/08/01 06:21:18;;;;;;;3.53;3.22;;;;;;;;;;4920140;29;20269;-86
2022/08/01 06:23:49;;;;;;;4.72;3.42;;;;;;;;;;4913426;29;20253;-87
2022/08/01 06:26:17;;;;;;;3.53;3.22;;;;;;;;;;4913905;29;20224;-85
2022/08/01 06:28:48;;;;;;;2.75;2.55;;;;;;;;;;4935967;28;20221;-88
2022/08/01 06:31:14;;;;;;;2.80;2.60;;;;;;;;;;4925191;29;20348;-84
2022/08/01 06:33:41;;;;;;;4.45;3.35;;;;;;;;;;4911742;29;20238;-86
2022/08/01 06:36:07;;;;;;;3.28;2.97;;;;;;;;;;4934622;28;20387;-85
2022/08/01 06:38:35;;;;;;;2.60;2.40;;;;;;;;;;4910586;29;20225;-87
2022/08/01 06:41:01;;;;;;;2.50;2.30;;;;;;;;;;4911161;29;20316;-86
2022/08/01 06:46:53;;;;;;;3.03;1.65;;;;;;;;;;4929519;29;20232;-85
2022/08/01 06:49:21;;;;;;;2.95;1.48;;;;;;;;;;4918788;29;20229;-84
2022/08/01 06:51:49;;;;;;;1.65;1.55;;;;;;;;;;4917381;29;20288;-88
2022/08/01 06:54:18;;;;;;;2.35;1.67;;;;;;;;;;4925237;29;20780;-85
2022/08/01 06:56:43;;;;;;;1.85;1.70;;;;;;;;;;4907303;29;20220;-86
2022/08/01 06:59:20;;;;;;;2.90;1.67;;;;;;;;;;4933883;28;20237;-87
2022/08/01 07:01:45;;;;;;;5.57;2.22;;;;;;;;;;4942444;23;20253;-76
2022/08/01 07:04:13;;;;;;;2.53;1.67;;;;;;;;;;4933270;28;20355;-77
2022/08/01 07:06:39;;;;;;;2.35;2.10;;;;;;;;;;4918636;29;20629;-76
2022/08/01 07:09:05;;;;;;;2.17;1.88;;;;;;;;;;4920992;28;20227;-76
2022/08/01 07:11:30;;;;;;;2.50;1.85;;;;;;;;;;4946341;28;20265;-76
2022/08/01 07:14:00;;;;;;;2.97;1.88;;;;;;;;;;4933585;28;20269;-76
2022/08/01 07:16:27;;;;;;;5.78;1.90;;;;;;;;;;4928220;28;20318;-75
2022/08/01 07:18:55;;;;;;;2.50;1.75;;;;;;;;;;4932491;29;20234;-76
2022/08/01 07:21:21;;;;;;;2.30;1.80;;;;;;;;;;4911785;28;20743;-76
2022/08/01 07:23:47;;;;;;;2.90;1.95;;;;;;;;;;4920210;29;20330;-76
2022/08/01 07:26:13;;;;;;;3.25;1.83;;;;;;;;;;4942715;28;20245;-75
2022/08/01 07:28:38;;;;;;;3.53;1.60;;;;;;;;;;4928470;29;20281;-76
2022/08/01 07:31:04;;;;;;;2.65;1.50;;;;;;;;;;4912425;28;20223;-77
2022/08/01 07:33:30;;;;;;;2.17;1.20;;;;;;;;;;4939743;28;20302;-77
2022/08/01 07:35:59;;;;;;;2.63;1.33;;;;;;;;;;4951750;28;20705;-76
2022/08/01 07:38:26;;;;;;;4.13;1.50;;;;;;;;;;4929244;28;20295;-76
2022/08/01 07:40:52;;;;;;;3.08;1.60;;;;;;;;;;4944985;28;20705;-77
2022/08/01 07:43:23;;;;;;;1.75;1.45;;;;;;;;;;4944045;28;20985;-78
2022/08/01 07:45:49;;;;;;;2.78;1.52;;;;;;;;;;4961197;23;20241;-86
2022/08/01 07:48:32;;;;;;;3.38;1.63;;;;;;;;;;4948612;28;20223;-86
2022/08/01 07:50:58;;;;;;;2.60;1.40;;;;;;;;;;4898053;29;20266;-87
2022/08/01 07:53:23;;;;;;;1.50;1.40;;;;;;;;;;4903923;29;21009;-85
2022/08/01 07:55:49;;;;;;;2.78;1.75;;;;;;;;;;4905938;29;20228;-85
2022/08/01 08:02:12;;;;;;;3.03;2.00;;;;;;;;;;4939936;29;20254;-87
2022/08/01 08:04:37;;;;;;;6.25;2.05;;;;;;;;;;4925596;29;20231;-84
2022/08/01 08:07:06;;;;;;;4.95;1.45;;;;;;;;;;4893245;29;20231;-83
2022/08/01 08:09:34;;;;;;;1.70;1.20;;;;;;;;;;4891733;29;20226;-84
2022/08/01 08:12:02;;;;;;;4.20;1.63;;;;;;;;;;4891746;29;20677;-85
2022/08/01 08:14:29;;;;;;;2.80;1.50;;;;;;;;;;4887587;29;20224;-84
2022/08/01 08:16:54;;;;;;;5.90;1.83;;;;;;;;;;4903893;29;20266;-84
2022/08/01 08:19:22;;;;;;;6.07;2.30;;;;;;;;;;4922011;29;20227;-85
2022/08/01 08:21:48;;;;;;;6.90;2.17;;;;;;;;;;4893158;29;20227;-83
2022/08/01 08:24:23;;;;;;;4.57;2.08;;;;;;;;;;4906071;29;20235;-84
2022/08/01 08:26:53;;;;;;;6.53;2.25;;;;;;;;;;4879213;29;20662;-83
2022/08/01 08:29:21;;;;;;;5.78;2.50;;;;;;;;;;4908497;29;20227;-83
2022/08/01 08:31:50;;;;;;;4.68;2.38;;;;;;;;;;4906432;29;20227;-81
2022/08/01 08:34:16;;;;;;;6.35;2.55;;;;;;;;;;4920534;29;20224;-82
2022/08/01 08:36:42;;;;;;;7.03;2.30;;;;;;;;;;4897652;29;20272;-85
2022/08/01 08:39:10;;;;;;;5.63;2.20;;;;;;;;;;4904990;29;20235;-81
2022/08/01 08:41:36;;;;;;;6.00;2.55;;;;;;;;;;4901955;29;20230;-83
2022/08/01 08:44:03;;;;;;;5.82;2.08;;;;;;;;;;4913942;23;20231;-77
2022/08/01 08:46:29;;;;;;;3.65;2.00;;;;;;;;;;4919121;29;20229;-77
2022/08/01 08:48:57;;;;;;;6.70;2.10;;;;;;;;;;4898662;29;20227;-77
2022/08/01 08:51:23;;;;;;;5.97;2.58;;;;;;;;;;4913539;28;20223;-77
2022/08/01 08:53:49;;;;;;;6.97;2.03;;;;;;;;;;4909807;29;20256;-77
2022/08/01 08:56:15;;;;;;;5.43;1.92;;;;;;;;;;4900061;28;20235;-78
2022/08/01 08:58:43;;;;;;;4.55;1.83;;;;;;;;;;4913033;29;20229;-77
2022/08/01 09:01:09;;;;;;;5.07;2.30;;;;;;;;;;4911567;28;20686;-78
2022/08/01 09:03:35;;;;;;;4.35;1.88;;;;;;;;;;4913284;29;20757;-77
2022/08/01 09:06:03;;;;;;;5.20;1.98;;;;;;;;;;4900139;29;20660;-78
2022/08/01 09:08:29;;;;;;;5.10;1.95;;;;;;;;;;4908426;29;20232;-78
2022/08/01 09:10:55;;;;;;;3.45;1.73;;;;;;;;;;4904093;29;20234;-79
2022/08/01 09:13:20;;;;;;;5.28;1.88;;;;;;;;;;4902286;28;20642;-79
2022/08/01 09:15:50;;;;;;;6.85;2.13;;;;;;;;;;4904000;29;20294;-78
2022/08/01 09:18:32;;;;;;;4.05;1.98;;;;;;;;;;4882971;28;20243;-79
2022/08/01 09:21:10;;;;;;;6.97;2.20;;;;;;;;;;4917390;29;20730;-77
2022/08/01 09:23:42;;;;;;;3.67;1.83;;;;;;;;;;4924509;28;20856;-77
2022/08/01 09:26:13;;;;;;;6.05;2.40;;;;;;;;;;4910419;28;20224;-79
2022/08/01 09:28:39;;;;;;;6.13;2.33;;;;;;;;;;4895948;29;20995;-75
2022/08/01 09:31:25;;;;;;;3.47;2.00;;;;;;;;;;4896358;28;20250;-77
2022/08/01 09:34:02;;;;;;;4.43;2.10;;;;;;;;;;4928656;29;20247;-75
2022/08/01 09:36:54;;;;;;;4.28;2.10;;;;;;;;;;4913493;29;20254;-75
2022/08/01 09:39:28;;;;;;;5.50;2.58;;;;;;;;;;4917553;28;20230;-77
2022/08/01 09:41:55;;;;;;;5.78;2.42;;;;;;;;;;4912287;29;20743;-77
2022/08/01 09:44:38;;;;;;;8.50;2.28;;;;;;;;;;4890479;28;20227;-77
2022/08/01 09:47:06;;;;;;;3.90;2.08;;;;;;;;;;4917633;28;20235;-79
2022/08/01 09:49:36;;;;;;;5.82;2.20;;;;;;;;;;4916162;29;20641;-77
2022/08/01 09:52:11;;;;;;;6.75;1.88;;;;;;;;;;4915574;29;20318;-77
2022/08/01 09:54:41;;;;;;;5.90;2.17;;;;;;;;;;4933544;29;20251;-78
2022/08/01 09:57:19;;;;;;;11.20;2.22;;;;;;;;;;4912888;28;20231;-78
2022/08/01 09:59:46;;;;;;;3.72;2.08;;;;;;;;;;4946071;28;20226;-78
2022/08/01 10:02:15;;;;;;;4.40;1.90;;;;;;;;;;4892654;28;20255;-79
2022/08/01 10:04:52;;;;;;;5.18;2.00;;;;;;;;;;4903420;29;20717;-78
2022/08/01 10:07:18;;;;;;;2.00;1.40;;;;;;;;;;4916661;28;20227;-78
2022/08/01 10:09:46;;;;;;;6.07;1.70;;;;;;;;;;4912955;29;20215;-79
2022/08/01 10:12:14;;;;;;;4.32;1.60;;;;;;;;;;4916035;28;20322;-77
2022/08/01 10:14:43;;;;;;;6.53;1.90;;;;;;;;;;4901320;29;20223;-77
2022/08/01 10:17:13;;;;;;;4.30;1.83;;;;;;;;;;4915713;28;20223;-77
2022/08/01 10:19:41;;;;;;;4.18;1.77;;;;;;;;;;4895334;29;20753;-76
2022/08/01 10:22:10;;;;;;;4.35;2.00;;;;;;;;;;4916712;28;20231;-76
2022/08/01 10:24:39;;;;;;;6.05;2.55;;;;;;;;;;4895553;29;20232;-76
2022/08/01 10:27:08;;;;;;;5.80;2.10;;;;;;;;;;4899547;28;20232;-76
2022/08/01 10:30:07;;;;;;;6.03;2.25;;;;;;;;;;4901147;29;20230;-76
2022/08/01 10:32:34;;;;;;;7.78;2.20;;;;;;;;;;4925398;29;20246;-77
2022/08/01 10:35:00;;;;;;;8.80;2.42;;;;;;;;;;4893155;29;20230;-77
2022/08/01 10:37:25;;;;;;;8.35;2.35;;;;;;;;;;4915774;28;20423;-77
2022/08/01 10:39:54;;;;;;;7.10;2.45;;;;;;;;;;4916494;29;20242;-76
2022/08/01 10:42:19;;;;;;;4.75;1.90;;;;;;;;;;4915546;28;20231;-76
2022/08/01 10:44:50;;;;;;;6.93;2.33;;;;;;;;;;4925453;29;20232;-77
2022/08/01 10:47:20;;;;;;;6.88;2.50;;;;;;;;;;4896667;28;20716;-77
2022/08/01 10:49:53;;;;;;;7.28;2.03;;;;;;;;;;4918997;29;20219;-77
2022/08/01 10:52:19;;;;;;;5.28;2.17;;;;;;;;;;4918030;28;20239;-78
2022/08/01 10:54:45;;;;;;;4.10;2.10;;;;;;;;;;4896128;29;20220;-77
2022/08/01 10:57:13;;;;;;;6.20;2.30;;;;;;;;;;4912653;28;20713;-78
2022/08/01 10:59:54;;;;;;;5.45;2.03;;;;;;;;;;4913978;29;20248;-78
2022/08/01 11:02:29;;;;;;;4.05;1.90;;;;;;;;;;4911304;28;20216;-76
2022/08/01 11:04:59;;;;;;;3.65;1.80;;;;;;;;;;4899465;29;20234;-76
2022/08/01 11:07:41;;;;;;;6.50;1.88;;;;;;;;;;4909024;28;20247;-76
2022/08/01 11:10:15;;;;;;;6.90;2.00;;;;;;;;;;4901218;28;20231;-77
2022/08/01 11:12:41;;;;;;;7.32;2.13;;;;;;;;;;4908098;29;20256;-77
2022/08/01 11:15:09;;;;;;;12.20;2.72;;;;;;;;;;4910106;28;20380;-75
2022/08/01 11:17:47;;;;;;;11.48;2.47;;;;;;;;;;4930176;28;20231;-77
2022/08/01 11:20:17;;;;;;;11.40;2.60;;;;;;;;;;4893999;28;20227;-76
2022/08/01 11:23:01;;;;;;;6.53;2.50;;;;;;;;;;4892779;29;20315;-76
2022/08/01 11:25:37;;;;;;;5.20;2.08;;;;;;;;;;4930944;28;20373;-77
2022/08/01 11:28:14;;;;;;;4.43;2.20;;;;;;;;;;4928977;28;20673;-77
2022/08/01 11:30:52;;;;;;;5.00;2.03;;;;;;;;;;4931493;29;20472;-76
2022/08/01 11:33:19;;;;;;;9.27;2.17;;;;;;;;;;4897395;28;20450;-77
2022/08/01 11:36:10;;;;;;;4.35;1.60;;;;;;;;;;4900304;29;20224;-76
2022/08/01 11:38:45;;;;;;;3.83;1.88;;;;;;;;;;4914473;29;20235;-75
2022/08/01 11:41:11;;;;;;;4.55;1.70;;;;;;;;;;4911802;28;20232;-76
2022/08/01 11:44:08;;;;;;;4.78;1.80;;;;;;;;;;4912563;29;20314;-76
2022/08/01 11:46:56;;;;;;;5.65;1.92;;;;;;;;;;4943275;28;20244;-76
2022/08/01 11:49:24;;;;;;;5.63;2.15;;;;;;;;;;4926115;28;20224;-76
2022/08/01 11:51:59;;;;;;;5.95;1.95;;;;;;;;;;4927239;29;20670;-76
2022/08/01 11:54:27;;;;;;;7.53;1.77;;;;;;;;;;4914284;28;20242;-76
2022/08/01 11:56:58;;;;;;;3.67;2.03;;;;;;;;;;4875449;29;20247;-75
2022/08/01 11:59:26;;;;;;;6.10;2.15;;;;;;;;;;4891461;28;20601;-77
2022/08/01 12:01:54;;;;;;;7.00;2.10;;;;;;;;;;4898519;29;20259;-77
2022/08/01 12:04:19;;;;;;;6.45;2.08;;;;;;;;;;4913571;28;20239;-75
2022/08/01 12:06:45;;;;;;;5.05;1.92;;;;;;;;;;4909733;29;20224;-74
2022/08/01 12:09:18;;;;;;;6.93;2.00;;;;;;;;;;4877161;28;20726;-74
2022/08/01 12:11:43;;;;;;;7.50;1.95;;;;;;;;;;4911834;29;20370;-77
2022/08/01 12:14:15;;;;;;;5.63;1.90;;;;;;;;;;4898702;28;20251;-76
2022/08/01 12:16:48;;;;;;;4.85;1.77;;;;;;;;;;4876955;29;20260;-75
2022/08/01 12:19:24;;;;;;;7.75;1.80;;;;;;;;;;4908454;28;20274;-75
2022/08/01 12:22:12;;;;;;;3.75;1.55;;;;;;;;;;4913777;29;20315;-76
2022/08/01 12:24:38;;;;;;;4.88;1.88;;;;;;;;;;4911546;29;20265;-76
2022/08/01 12:27:04;;;;;;;4.97;1.60;;;;;;;;;;4892011;28;20244;-75
2022/08/01 12:29:33;;;;;;;6.72;1.73;;;;;;;;;;4893751;29;20227;-75
2022/08/01 12:32:00;;;;;;;4.13;2.00;;;;;;;;;;4888048;29;20232;-76
2022/08/01 12:34:29;;;;;;;6.65;1.98;;;;;;;;;;4910736;28;20223;-74
2022/08/01 12:36:59;;;;;;;6.10;1.60;;;;;;;;;;4899090;29;20246;-76
2022/08/01 12:39:34;;;;;;;3.35;1.30;;;;;;;;;;4912151;28;20224;-74
2022/08/01 12:42:06;;;;;;;4.05;1.55;;;;;;;;;;4899586;29;20266;-76
2022/08/01 12:44:32;;;;;;;4.75;1.63;;;;;;;;;;4895596;29;20240;-77
2022/08/01 12:46:57;;;;;;;4.88;1.90;;;;;;;;;;4896593;29;20763;-76
2022/08/01 12:49:23;;;;;;;5.68;1.70;;;;;;;;;;4909825;28;20686;-76
2022/08/01 12:51:49;;;;;;;5.00;1.42;;;;;;;;;;4894713;29;20253;-77
2022/08/01 12:54:17;;;;;;;4.13;1.65;;;;;;;;;;4924295;28;20224;-76
2022/08/01 12:56:45;;;;;;;3.13;1.48;;;;;;;;;;4897873;29;20227;-78
2022/08/01 12:59:27;;;;;;;9.10;2.10;;;;;;;;;;4892419;28;20272;-77
2022/08/01 13:01:55;;;;;;;3.55;1.60;;;;;;;;;;4928685;29;20230;-76
2022/08/01 13:04:21;;;;;;;2.97;1.30;;;;;;;;;;4895436;28;20243;-77
2022/08/01 13:06:58;;;;;;;5.90;2.00;;;;;;;;;;4908631;29;20314;-77
2022/08/01 13:09:29;;;;;;;3.58;1.52;;;;;;;;;;4887956;28;20215;-77
2022/08/01 13:11:55;;;;;;;3.30;1.67;;;;;;;;;;4910982;29;20234;-76
2022/08/01 13:14:28;;;;;;;4.80;1.52;;;;;;;;;;4902397;28;20227;-77
2022/08/01 13:16:58;;;;;;;5.32;1.50;;;;;;;;;;4912920;29;20230;-77
2022/08/01 13:19:44;;;;;;;3.17;1.23;;;;;;;;;;4907747;28;20231;-77
2022/08/01 13:22:09;;;;;;;6.00;1.55;;;;;;;;;;4909135;28;20279;-75
2022/08/01 13:24:35;;;;;;;3.75;1.48;;;;;;;;;;4897957;29;20242;-75
2022/08/01 13:27:03;;;;;;;3.60;1.30;;;;;;;;;;4909554;29;20251;-76
2022/08/01 13:29:31;;;;;;;3.33;1.50;;;;;;;;;;4912142;29;20238;-75
2022/08/01 13:31:59;;;;;;;2.63;1.20;;;;;;;;;;4926815;29;20239;-77
2022/08/01 13:34:34;;;;;;;3.83;1.52;;;;;;;;;;4895437;28;20254;-76
2022/08/01 13:37:01;;;;;;;3.83;1.42;;;;;;;;;;4895848;29;20286;-76
2022/08/01 13:39:44;;;;;;;2.97;1.38;;;;;;;;;;4897432;28;20275;-75
2022/08/01 13:42:17;;;;;;;4.75;1.80;;;;;;;;;;4911985;28;20260;-77
2022/08/01 13:44:46;;;;;;;4.38;1.13;;;;;;;;;;4910139;29;20262;-76
2022/08/01 13:47:12;;;;;;;4.10;1.50;;;;;;;;;;4907929;28;20615;-75
2022/08/01 13:49:37;;;;;;;5.70;1.35;;;;;;;;;;4912922;29;20235;-75
2022/08/01 13:52:05;;;;;;;4.10;1.40;;;;;;;;;;4896049;28;20223;-76
2022/08/01 13:54:33;;;;;;;2.75;1.38;;;;;;;;;;4898861;29;20219;-76
2022/08/01 13:57:01;;;;;;;4.90;1.52;;;;;;;;;;4878979;29;20238;-77
2022/08/01 13:59:27;;;;;;;4.05;1.38;;;;;;;;;;4936061;28;21055;-76
2022/08/01 14:01:55;;;;;;;2.72;1.35;;;;;;;;;;4905391;29;20224;-76
2022/08/01 14:04:21;;;;;;;5.07;1.50;;;;;;;;;;4898482;28;20611;-77
2022/08/01 14:06:47;;;;;;;3.42;1.50;;;;;;;;;;4902078;29;20277;-77
2022/08/01 14:09:12;;;;;;;5.40;1.60;;;;;;;;;;4890239;28;20239;-75
2022/08/01 14:11:38;;;;;;;3.63;1.42;;;;;;;;;;4907331;29;20215;-76
2022/08/01 14:14:06;;;;;;;2.58;1.40;;;;;;;;;;4888689;28;20255;-76
2022/08/01 14:16:34;;;;;;;6.18;1.52;;;;;;;;;;4880338;29;20231;-75
2022/08/01 14:19:03;;;;;;;3.55;1.60;;;;;;;;;;4924002;28;20224;-74
2022/08/01 14:21:28;;;;;;;3.47;1.40;;;;;;;;;;4894588;29;20215;-76
2022/08/01 14:23:57;;;;;;;2.75;1.30;;;;;;;;;;4911927;29;20291;-75
2022/08/01 14:26:25;;;;;;;2.38;1.20;;;;;;;;;;4893759;28;20247;-75
2022/08/01 14:28:51;;;;;;;4.03;1.27;;;;;;;;;;4910902;29;20262;-77
2022/08/01 14:31:19;;;;;;;2.28;1.10;;;;;;;;;;4893901;28;20275;-77
2022/08/01 14:33:44;;;;;;;3.97;1.40;;;;;;;;;;4912205;29;20235;-77
2022/08/01 14:36:12;;;;;;;2.35;1.30;;;;;;;;;;4927667;28;20606;-77
2022/08/01 14:38:38;;;;;;;3.42;1.48;;;;;;;;;;4897886;29;20219;-78
2022/08/01 14:41:04;;;;;;;2.22;1.02;;;;;;;;;;4913442;28;20232;-78
2022/08/01 14:43:32;;;;;;;3.70;1.10;;;;;;;;;;4917856;29;20227;-78
2022/08/01 14:45:58;;;;;;;6.65;1.42;;;;;;;;;;4915826;29;20758;-75
2022/08/01 14:48:23;;;;;;;2.75;1.25;;;;;;;;;;4929314;29;20231;-75
2022/08/01 14:50:51;;;;;;;3.38;1.40;;;;;;;;;;4914196;29;20238;-76
2022/08/01 14:53:17;;;;;;;2.60;1.40;;;;;;;;;;4898932;28;20228;-77
2022/08/01 14:55:43;;;;;;;3.75;1.42;;;;;;;;;;4908410;29;20217;-75